Flight Briefing for CPX782

Departure Arrival
Incheon International Airport (RKSI)
Click to view FAA NOTAMS
Noi Bai International Airport (VVNB)
Click to view FAA NOTAMS
Departure Time Arrival Time
N/A N/A
Aircraft Distance
B767-300BDSF 1449nm
Departure METAR Arrival METAR
RKSI 252330Z 06002KT 3300 BR SCT005 BKN020 07/04 Q1018 NOSIG VVNB 252330Z 07004KT 040V110 2300 -DZ BR SCT007 BKN012 18/18 Q1017 NOSIG
Suggested Route
BOPTA1K BOPTA Z51 BEDES Y711 PONIK A593 PUD A599 JTN A599 PLT A599 GYA R474 LON R474 NOB


View recent IFR Routes data
Notes



Charts and Procedures

Charts for RKSI
No chart available
Charts for VVNB
No chart available

Windy.com Weather Map